createdAt,value
2019-05-05T00:00:01.062Z,1.50
2019-05-05T00:05:01.042Z,1.60
2019-05-05T00:10:01.063Z,1.60
2019-05-05T00:15:01.081Z,1.80
2019-05-05T00:20:01.058Z,1.80
2019-05-05T00:25:01.070Z,1.60
2019-05-05T00:30:01.075Z,1.40
2019-05-05T00:35:01.476Z,1.50
2019-05-05T00:40:01.041Z,1.60
2019-05-05T00:45:01.067Z,1.70
2019-05-05T00:50:01.392Z,1.70
2019-05-05T00:55:01.419Z,1.80
2019-05-05T01:00:01.082Z,1.60
2019-05-05T01:05:01.442Z,1.80
2019-05-05T01:10:01.063Z,1.90
2019-05-05T01:15:01.084Z,2.10
2019-05-05T01:20:04.100Z,1.70
2019-05-05T01:25:01.409Z,2.20
2019-05-05T01:30:01.076Z,1.80
2019-05-05T01:35:01.439Z,2.10
2019-05-05T01:40:01.073Z,2.10
2019-05-05T01:45:01.059Z,2.40
2019-05-05T01:50:08.209Z,2.70
2019-05-05T01:55:01.060Z,2.60
2019-05-05T02:00:01.095Z,2.60
2019-05-05T02:05:01.054Z,4.40
2019-05-05T02:10:01.387Z,4.40
2019-05-05T02:15:01.482Z,4.70
2019-05-05T02:20:01.532Z,5.50
2019-05-05T02:25:01.091Z,2.40
2019-05-05T02:30:01.060Z,1.70
2019-05-05T02:35:01.055Z,0.40
2019-05-05T02:40:06.228Z,0.40
2019-05-05T02:45:01.526Z,0.30
2019-05-05T02:50:01.052Z,0.10
2019-05-05T02:55:01.513Z,0.10
2019-05-05T03:00:01.067Z,0.10
2019-05-05T03:05:01.368Z,0.10
2019-05-05T03:10:01.063Z,0.20
2019-05-05T03:15:01.429Z,0.10
2019-05-05T03:20:01.051Z,0.10
2019-05-05T03:25:01.028Z,0.10
2019-05-05T03:30:01.048Z,0.20
2019-05-05T03:35:01.058Z,0.00
2019-05-05T03:40:01.051Z,0.10
2019-05-05T03:45:01.092Z,0.10
2019-05-05T03:50:01.078Z,0.10
2019-05-05T03:55:01.053Z,0.20
2019-05-05T04:00:01.082Z,0.10
2019-05-05T04:50:01.074Z,0.20
2019-05-05T04:55:01.034Z,0.30
2019-05-05T05:00:01.112Z,0.20
2019-05-05T05:05:01.060Z,0.20
2019-05-05T05:10:01.101Z,0.60
2019-05-05T05:15:01.194Z,0.20
2019-05-05T05:20:01.058Z,0.20
2019-05-05T05:25:01.046Z,0.30
2019-05-05T05:30:01.046Z,0.20
2019-05-05T05:35:01.051Z,0.30
2019-05-05T05:40:01.073Z,0.20
2019-05-05T05:45:01.086Z,0.40
2019-05-05T05:50:01.057Z,0.30
2019-05-05T05:55:01.049Z,0.80
2019-05-05T06:00:01.081Z,0.20
2019-05-05T06:05:01.500Z,0.20
2019-05-05T06:10:01.043Z,0.30
2019-05-05T06:15:03.699Z,0.20
2019-05-05T06:20:01.154Z,0.10
2019-05-05T06:25:01.069Z,0.20
2019-05-05T06:30:01.485Z,0.40
2019-05-05T06:35:01.065Z,0.30
2019-05-05T06:40:01.058Z,0.20
2019-05-05T06:45:01.497Z,0.20
2019-05-05T06:50:06.473Z,0.30
2019-05-05T06:55:03.638Z,0.30
2019-05-05T07:00:03.494Z,0.20
2019-05-05T07:05:01.202Z,0.30
2019-05-05T07:10:01.100Z,0.20
2019-05-05T07:15:01.430Z,0.30
2019-05-05T07:20:01.070Z,0.30
2019-05-05T07:25:01.067Z,0.40
2019-05-05T07:30:01.228Z,0.70
2019-05-05T07:35:01.061Z,0.50
2019-05-05T07:40:01.057Z,0.60
2019-05-05T07:45:01.045Z,0.60
2019-05-05T07:50:01.046Z,0.50
2019-05-05T07:55:01.056Z,0.40
2019-05-05T08:00:01.132Z,0.30
2019-05-05T08:05:01.548Z,0.50
2019-05-05T08:10:01.058Z,0.40
2019-05-05T08:15:01.085Z,0.50
2019-05-05T08:20:01.077Z,0.50
2019-05-05T08:25:01.052Z,0.40
2019-05-05T08:30:03.095Z,0.60
2019-05-05T08:35:01.237Z,0.50
2019-05-05T08:40:01.369Z,0.30
2019-05-05T08:45:01.085Z,0.30
2019-05-05T08:50:01.103Z,0.20
2019-05-05T08:55:01.103Z,0.20
2019-05-05T09:00:01.110Z,0.30
2019-05-05T09:05:01.079Z,0.40
2019-05-05T09:10:03.732Z,0.30
2019-05-05T09:15:01.416Z,0.30
2019-05-05T09:20:01.074Z,0.40
2019-05-05T09:25:04.375Z,0.30
2019-05-05T09:30:01.093Z,0.20
2019-05-05T09:35:01.086Z,0.30
2019-05-05T09:40:01.580Z,0.60
2019-05-05T09:45:01.590Z,0.30
2019-05-05T09:50:01.071Z,0.20
2019-05-05T09:55:01.100Z,0.30
2019-05-05T10:00:01.073Z,0.30
2019-05-05T10:05:01.061Z,0.30
2019-05-05T10:10:01.059Z,0.20
2019-05-05T10:15:09.870Z,0.20
2019-05-05T10:20:01.557Z,0.30
2019-05-05T10:25:01.119Z,0.40
2019-05-05T10:30:01.115Z,0.40
2019-05-05T10:35:04.188Z,0.80
2019-05-05T10:40:03.513Z,0.50
2019-05-05T10:45:01.514Z,0.50
2019-05-05T10:50:01.680Z,0.40
2019-05-05T10:55:01.439Z,0.40
2019-05-05T11:00:10.127Z,0.40
2019-05-05T11:05:01.073Z,0.50
2019-05-05T11:10:01.094Z,0.40
2019-05-05T11:15:03.931Z,0.50
2019-05-05T11:20:01.132Z,0.50
2019-05-05T11:25:01.603Z,0.40
2019-05-05T11:30:01.142Z,0.40
2019-05-05T11:35:01.754Z,0.50
2019-05-05T11:40:01.525Z,0.60
2019-05-05T11:45:01.483Z,0.50
2019-05-05T11:50:01.136Z,0.60
2019-05-05T11:55:09.822Z,0.60
2019-05-05T12:00:01.180Z,0.60
2019-05-05T12:05:01.089Z,0.60
2019-05-05T12:10:01.423Z,0.60
2019-05-05T12:15:01.101Z,1.80
2019-05-05T12:20:01.217Z,0.60
2019-05-05T12:25:01.121Z,0.80
2019-05-05T12:30:01.107Z,0.80
2019-05-05T12:35:01.114Z,1.90
2019-05-05T12:40:01.075Z,0.60
2019-05-05T12:45:01.097Z,0.70
2019-05-05T12:50:01.037Z,0.70
2019-05-05T12:55:04.333Z,0.70
2019-05-05T13:00:01.081Z,0.90
2019-05-05T13:05:01.192Z,0.80
2019-05-05T13:10:01.159Z,0.60
2019-05-05T13:15:01.045Z,0.80
2019-05-05T13:20:01.134Z,0.60
2019-05-05T13:25:01.056Z,0.80
2019-05-05T13:30:01.138Z,0.70
2019-05-05T13:35:01.129Z,0.60
2019-05-05T13:40:01.089Z,0.60
2019-05-05T13:45:01.101Z,0.70
2019-05-05T13:50:01.102Z,0.50
2019-05-05T13:55:01.068Z,0.60
2019-05-05T14:00:01.114Z,0.70
2019-05-05T14:05:01.072Z,0.70
2019-05-05T14:10:01.079Z,0.90
2019-05-05T14:15:01.060Z,0.70
2019-05-05T14:20:06.728Z,0.90
2019-05-05T14:25:01.040Z,0.90
2019-05-05T14:30:01.113Z,0.90
2019-05-05T14:35:01.274Z,1.10
2019-05-05T14:40:01.041Z,1.00
2019-05-05T14:45:01.336Z,1.00
2019-05-05T14:50:01.271Z,0.90
2019-05-05T14:55:01.088Z,1.00
2019-05-05T15:00:01.297Z,0.90
2019-05-05T15:05:01.043Z,0.90
2019-05-05T15:10:01.827Z,0.90
2019-05-05T15:15:01.065Z,0.90
2019-05-05T15:20:01.326Z,0.90
2019-05-05T15:25:01.061Z,1.20
2019-05-05T15:30:01.074Z,1.00
2019-05-05T15:35:01.064Z,1.10
2019-05-05T15:40:01.084Z,0.90
2019-05-05T15:45:01.126Z,1.00
2019-05-05T15:50:01.082Z,0.90
2019-05-05T15:55:01.071Z,1.50
2019-05-05T16:00:01.060Z,2.90
2019-05-05T16:05:01.035Z,1.00
2019-05-05T16:10:01.094Z,1.20
2019-05-05T16:15:01.066Z,0.90
2019-05-05T16:20:01.069Z,0.80
2019-05-05T16:25:01.061Z,0.80
2019-05-05T16:30:01.432Z,0.90
2019-05-05T16:35:03.608Z,0.80
2019-05-05T16:40:01.097Z,0.90
2019-05-05T16:45:01.357Z,0.80
2019-05-05T16:50:01.064Z,0.80
2019-05-05T16:55:01.090Z,0.70
2019-05-05T17:00:01.165Z,0.90
2019-05-05T17:05:01.471Z,0.60
2019-05-05T17:10:01.045Z,1.10
2019-05-05T17:15:01.757Z,0.60
2019-05-05T17:20:01.031Z,2.60
2019-05-05T17:25:01.089Z,2.30
2019-05-05T17:30:01.051Z,0.90
